createdAt,value
2023-02-15T00:01:42.416Z,12.93
2023-02-15T00:04:10.554Z,11.88
2023-02-15T00:06:37.163Z,11.73
2023-02-15T00:09:03.944Z,11.48
2023-02-15T00:12:06.120Z,11.55
2023-02-15T00:14:33.002Z,11.57
2023-02-15T00:17:00.842Z,13.07
2023-02-15T00:19:27.696Z,11.20
2023-02-15T00:21:54.316Z,12.57
2023-02-15T00:24:20.960Z,13.48
2023-02-15T00:26:48.848Z,12.75
2023-02-15T00:29:17.845Z,13.18
2023-02-15T00:31:44.496Z,13.10
2023-02-15T00:34:25.969Z,12.23
2023-02-15T00:36:53.064Z,12.25
2023-02-15T00:39:20.436Z,12.85
2023-02-15T00:41:48.021Z,13.07
2023-02-15T00:44:15.833Z,12.55
2023-02-15T00:46:43.010Z,11.52
2023-02-15T00:49:10.141Z,10.70
2023-02-15T00:51:36.996Z,11.57
2023-02-15T00:54:03.779Z,11.82
2023-02-15T00:56:30.595Z,10.85
2023-02-15T00:58:57.160Z,11.38
2023-02-15T01:01:24.501Z,10.95
2023-02-15T01:03:51.234Z,10.85
2023-02-15T01:06:18.349Z,12.02
2023-02-15T01:08:46.434Z,10.38
2023-02-15T01:11:23.149Z,11.13
2023-02-15T01:13:56.377Z,10.27
2023-02-15T01:16:25.121Z,11.23
2023-02-15T01:18:51.906Z,10.25
2023-02-15T01:21:21.988Z,10.98
2023-02-15T01:23:49.089Z,11.40
2023-02-15T01:26:16.345Z,10.52
2023-02-15T01:28:43.202Z,11.35
2023-02-15T01:31:13.190Z,11.02
2023-02-15T01:33:40.145Z,11.18
2023-02-15T01:36:06.876Z,11.32
2023-02-15T01:38:35.210Z,11.48
2023-02-15T01:41:20.463Z,10.77
2023-02-15T01:43:49.619Z,10.77
2023-02-15T01:46:20.085Z,11.02
2023-02-15T01:48:54.830Z,10.52
2023-02-15T01:51:24.197Z,11.13
2023-02-15T01:53:59.864Z,10.35
2023-02-15T01:56:31.208Z,10.88
2023-02-15T01:59:03.739Z,10.65
2023-02-15T02:01:30.626Z,11.32
2023-02-15T02:04:09.014Z,10.82
2023-02-15T02:06:37.081Z,12.60
2023-02-15T02:09:03.927Z,11.02
2023-02-15T02:11:30.533Z,10.88
2023-02-15T02:13:57.408Z,10.88
2023-02-15T02:17:06.314Z,10.48
2023-02-15T02:19:44.615Z,10.55
2023-02-15T02:22:32.661Z,11.70
2023-02-15T02:25:30.472Z,11.00
2023-02-15T02:27:59.896Z,11.43
2023-02-15T02:30:58.306Z,11.80
2023-02-15T02:33:36.895Z,11.23
2023-02-15T02:36:12.012Z,12.25
2023-02-15T02:38:54.188Z,11.35
2023-02-15T02:41:50.188Z,11.27
2023-02-15T02:44:35.476Z,12.05
2023-02-15T02:47:07.863Z,12.40
2023-02-15T02:49:37.812Z,11.95
2023-02-15T02:52:07.837Z,11.77
2023-02-15T02:54:36.909Z,12.13
2023-02-15T02:57:10.070Z,11.88
2023-02-15T02:59:46.034Z,13.25
2023-02-15T03:02:25.163Z,12.85
2023-02-15T03:04:59.570Z,12.07
2023-02-15T03:07:29.720Z,11.35
2023-02-15T03:09:59.596Z,11.18
2023-02-15T03:12:46.624Z,12.15
2023-02-15T03:15:26.240Z,11.93
2023-02-15T03:17:57.682Z,12.40
2023-02-15T03:20:33.142Z,11.15
2023-02-15T03:23:13.507Z,12.52
2023-02-15T03:25:43.840Z,13.07
2023-02-15T03:28:21.677Z,12.00
2023-02-15T03:30:54.397Z,11.32
2023-02-15T03:33:23.137Z,11.90
2023-02-15T03:36:05.041Z,11.50
2023-02-15T03:38:45.869Z,10.95
2023-02-15T03:41:15.341Z,12.68
2023-02-15T03:43:54.222Z,12.50
2023-02-15T03:46:48.234Z,12.88
2023-02-15T03:49:24.395Z,13.93
2023-02-15T03:51:55.499Z,12.73
2023-02-15T03:54:44.642Z,12.45
2023-02-15T03:57:48.574Z,11.75
2023-02-15T04:00:38.367Z,13.15
2023-02-15T04:03:11.998Z,12.30
2023-02-15T04:05:39.037Z,12.40
2023-02-15T04:08:05.686Z,12.77
2023-02-15T04:10:50.843Z,14.43
2023-02-15T04:13:17.504Z,12.27
2023-02-15T04:16:03.355Z,12.60
2023-02-15T04:19:00.670Z,12.18
2023-02-15T04:21:47.921Z,13.82
2023-02-15T04:24:34.169Z,13.45
2023-02-15T04:27:01.675Z,13.35
2023-02-15T04:29:28.926Z,13.70
2023-02-15T04:31:57.842Z,14.73
2023-02-15T04:34:25.243Z,13.88
2023-02-15T04:36:51.953Z,13.70
2023-02-15T04:39:19.920Z,15.25
2023-02-15T04:41:48.620Z,13.68
2023-02-15T04:44:15.331Z,12.63
2023-02-15T04:46:41.935Z,13.35
2023-02-15T04:49:09.568Z,12.80
2023-02-15T04:51:36.168Z,12.77
2023-02-15T04:54:02.814Z,12.95
2023-02-15T04:56:30.995Z,14.38
2023-02-15T04:58:57.943Z,12.98
2023-02-15T05:01:24.598Z,12.98
2023-02-15T05:03:51.286Z,14.98
2023-02-15T05:06:18.137Z,13.15
2023-02-15T05:08:44.754Z,12.32
2023-02-15T05:11:11.411Z,12.38
2023-02-15T05:13:38.098Z,12.70
2023-02-15T05:16:04.941Z,12.23
2023-02-15T05:18:31.634Z,12.30
2023-02-15T05:20:58.284Z,12.32
2023-02-15T05:23:24.921Z,11.73
2023-02-15T05:26:11.055Z,11.90
2023-02-15T05:28:38.516Z,12.40
2023-02-15T05:31:10.710Z,12.80
2023-02-15T05:33:37.630Z,14.23
2023-02-15T05:36:05.156Z,12.38
2023-02-15T05:38:32.650Z,12.88
2023-02-15T05:40:59.874Z,12.93
2023-02-15T05:43:27.124Z,12.20
2023-02-15T05:45:55.695Z,11.48
2023-02-15T05:48:24.509Z,12.45
2023-02-15T05:51:05.958Z,11.43
2023-02-15T05:53:34.505Z,11.82
2023-02-15T05:56:01.983Z,11.80
2023-02-15T05:58:39.918Z,12.27
2023-02-15T06:01:11.828Z,12.07
2023-02-15T06:03:38.739Z,13.07
2023-02-15T06:06:05.652Z,12.45
2023-02-15T06:08:33.906Z,12.35
2023-02-15T06:11:00.704Z,12.50
2023-02-15T06:13:27.851Z,11.93
2023-02-15T06:15:54.733Z,11.30
2023-02-15T06:18:21.491Z,12.15
2023-02-15T06:20:48.895Z,13.32
2023-02-15T06:23:15.800Z,11.48
2023-02-15T06:25:42.711Z,12.60
2023-02-15T06:28:09.470Z,12.48
2023-02-15T06:30:36.099Z,11.98
2023-02-15T06:33:02.729Z,12.32
2023-02-15T06:35:29.440Z,13.00
2023-02-15T06:37:56.051Z,12.68
2023-02-15T06:40:22.682Z,12.38
2023-02-15T06:42:49.450Z,12.00
2023-02-15T06:45:16.157Z,12.95
2023-02-15T06:47:42.818Z,13.68
2023-02-15T06:50:10.285Z,11.93
2023-02-15T06:52:36.915Z,12.20
2023-02-15T06:55:03.924Z,13.35
2023-02-15T06:57:30.943Z,13.20
2023-02-15T06:59:59.262Z,12.35
2023-02-15T07:02:26.265Z,12.52
2023-02-15T07:04:52.883Z,12.43
2023-02-15T07:07:19.623Z,12.48
2023-02-15T07:09:46.213Z,12.65
2023-02-15T07:12:31.513Z,12.82
2023-02-15T07:14:59.184Z,12.10
2023-02-15T07:17:36.869Z,11.68
2023-02-15T07:20:12.421Z,11.43
2023-02-15T07:22:39.095Z,10.70
2023-02-15T07:25:08.193Z,12.38
2023-02-15T07:27:35.088Z,11.25
2023-02-15T07:30:02.366Z,12.70
2023-02-15T07:32:31.100Z,12.73
2023-02-15T07:34:58.002Z,12.45
2023-02-15T07:37:25.074Z,12.85
2023-02-15T07:39:51.689Z,12.90
2023-02-15T07:42:18.855Z,11.80
2023-02-15T07:44:45.461Z,13.70
2023-02-15T07:47:12.945Z,12.20
2023-02-15T07:49:39.550Z,12.73
2023-02-15T07:52:06.258Z,12.73
2023-02-15T07:54:32.950Z,12.23
2023-02-15T07:57:01.019Z,12.23
2023-02-15T07:59:28.242Z,12.63
2023-02-15T08:01:57.317Z,12.57
2023-02-15T08:04:25.127Z,11.50
2023-02-15T08:06:55.398Z,12.27
2023-02-15T08:09:22.133Z,13.05
2023-02-15T08:11:49.565Z,11.43
2023-02-15T08:14:21.351Z,12.85
2023-02-15T08:16:53.333Z,13.77
2023-02-15T08:19:24.291Z,11.43
2023-02-15T08:21:54.367Z,11.85
2023-02-15T08:24:23.294Z,12.63
2023-02-15T08:26:51.037Z,13.10
2023-02-15T08:29:20.198Z,11.93
2023-02-15T08:31:47.278Z,12.10
2023-02-15T08:34:17.411Z,12.02
2023-02-15T08:36:46.015Z,13.18
2023-02-15T08:39:13.951Z,12.30
2023-02-15T08:41:43.722Z,11.82
2023-02-15T08:44:11.670Z,12.10
2023-02-15T08:46:42.463Z,12.07
2023-02-15T08:49:10.464Z,12.13
2023-02-15T08:51:38.814Z,12.32
2023-02-15T08:54:12.836Z,11.88
2023-02-15T08:56:41.686Z,11.88
2023-02-15T08:59:17.149Z,12.45
2023-02-15T09:01:44.601Z,12.65
2023-02-15T09:04:11.631Z,12.38
2023-02-15T09:06:39.594Z,11.45
2023-02-15T09:09:07.433Z,11.45
2023-02-15T09:11:37.583Z,12.45
2023-02-15T09:14:14.490Z,10.85
2023-02-15T09:16:42.704Z,11.35
2023-02-15T09:19:09.559Z,11.48
2023-02-15T09:21:38.311Z,11.68
2023-02-15T09:24:08.394Z,12.25
2023-02-15T09:26:37.644Z,11.65
2023-02-15T09:29:04.872Z,11.68
2023-02-15T09:31:37.911Z,11.90
2023-02-15T09:34:04.826Z,11.43
2023-02-15T09:36:39.469Z,11.57
2023-02-15T09:39:13.580Z,11.63
2023-02-15T09:42:01.471Z,11.02
2023-02-15T09:44:55.555Z,11.40
2023-02-15T09:50:25.809Z,10.90
2023-02-15T09:53:17.245Z,11.55
2023-02-15T09:56:02.698Z,11.15
2023-02-15T09:58:51.229Z,11.85
2023-02-15T10:01:33.418Z,11.32
2023-02-15T10:04:21.329Z,12.52
2023-02-15T10:07:07.455Z,12.65
2023-02-15T10:09:39.831Z,11.48
2023-02-15T10:12:40.325Z,11.95
2023-02-15T10:15:19.754Z,11.25
2023-02-15T10:18:05.408Z,11.82
2023-02-15T10:20:58.728Z,11.35
2023-02-15T10:24:09.524Z,11.07
2023-02-15T10:26:43.474Z,11.40
2023-02-15T10:29:22.741Z,12.18
2023-02-15T10:32:23.720Z,11.25
2023-02-15T10:34:51.106Z,11.68
2023-02-15T10:37:48.240Z,11.52
2023-02-15T10:40:32.999Z,11.68
2023-02-15T10:43:07.634Z,12.43
2023-02-15T10:46:01.849Z,10.98
2023-02-15T10:48:47.335Z,11.07
2023-02-15T10:51:28.650Z,11.23
2023-02-15T10:54:14.815Z,11.15
2023-02-15T10:56:41.343Z,10.82
2023-02-15T10:59:54.382Z,11.95
2023-02-15T11:02:46.532Z,11.45
2023-02-15T11:05:53.956Z,10.90
2023-02-15T11:08:21.930Z,11.38
2023-02-15T11:10:57.934Z,10.88
2023-02-15T11:13:29.232Z,11.32
2023-02-15T11:16:04.211Z,11.90
2023-02-15T11:18:38.405Z,11.70
2023-02-15T11:21:25.010Z,11.68
2023-02-15T11:23:53.041Z,11.35
2023-02-15T11:26:58.072Z,11.63
2023-02-15T11:29:34.362Z,11.07
2023-02-15T11:32:22.494Z,10.85
2023-02-15T11:35:22.351Z,11.60
2023-02-15T11:38:20.723Z,12.15
2023-02-15T11:41:01.252Z,11.25
2023-02-15T11:43:59.088Z,11.32
2023-02-15T11:46:25.913Z,11.15
2023-02-15T11:48:52.620Z,11.07
2023-02-15T11:51:23.847Z,10.32
2023-02-15T11:53:51.702Z,11.43
2023-02-15T11:56:22.281Z,11.60
2023-02-15T11:58:51.549Z,10.70
2023-02-15T12:01:28.306Z,11.38
2023-02-15T12:04:07.954Z,11.82
2023-02-15T12:06:39.688Z,11.15
2023-02-15T12:09:10.759Z,11.38
2023-02-15T12:11:40.228Z,11.75
2023-02-15T12:14:09.749Z,12.25
2023-02-15T12:16:49.397Z,11.35
2023-02-15T12:19:28.199Z,11.93
2023-02-15T12:21:54.855Z,10.90
2023-02-15T12:24:45.023Z,12.32
2023-02-15T12:27:19.466Z,11.55
2023-02-15T12:29:56.391Z,11.63
2023-02-15T12:32:34.126Z,12.05
2023-02-15T12:35:08.241Z,11.80
2023-02-15T12:37:35.658Z,11.68
2023-02-15T12:40:19.422Z,12.05
2023-02-15T12:45:30.394Z,12.00
2023-02-15T12:48:20.389Z,11.98
2023-02-15T12:50:54.749Z,11.95
2023-02-15T12:53:30.653Z,12.70
2023-02-15T12:55:59.530Z,12.60
2023-02-15T12:58:28.593Z,11.70
2023-02-15T13:01:13.843Z,12.07
2023-02-15T13:03:59.783Z,11.25
2023-02-15T13:06:27.853Z,12.93
2023-02-15T13:09:06.176Z,12.32
2023-02-15T13:11:35.197Z,12.07
2023-02-15T13:14:04.992Z,11.52
2023-02-15T13:16:35.948Z,11.80
2023-02-15T13:19:13.577Z,12.32
2023-02-15T13:21:44.675Z,12.00
2023-02-15T13:24:27.923Z,12.18
2023-02-15T13:27:13.105Z,11.63
2023-02-15T13:29:43.685Z,12.38
2023-02-15T13:32:37.224Z,12.38
2023-02-15T13:35:07.997Z,12.70
2023-02-15T13:38:00.728Z,12.48
2023-02-15T13:40:46.131Z,12.68
2023-02-15T13:43:19.943Z,12.23
2023-02-15T13:46:11.591Z,11.75
2023-02-15T13:48:55.664Z,13.45
2023-02-15T13:51:31.936Z,13.10
2023-02-15T13:54:29.653Z,12.73
2023-02-15T13:57:27.169Z,12.32
2023-02-15T14:00:12.396Z,12.23
2023-02-15T14:03:10.738Z,13.15
2023-02-15T14:05:58.880Z,12.55
2023-02-15T14:08:46.535Z,13.32
2023-02-15T14:11:41.192Z,13.05
2023-02-15T14:14:28.735Z,13.23
2023-02-15T14:17:06.110Z,13.90
2023-02-15T14:19:46.708Z,13.30
2023-02-15T14:22:26.852Z,12.63
2023-02-15T14:25:26.955Z,12.45
2023-02-15T14:28:15.815Z,12.82
2023-02-15T14:30:46.666Z,12.55
2023-02-15T14:33:17.397Z,13.52
2023-02-15T14:35:44.661Z,14.23
2023-02-15T14:38:40.111Z,13.20
2023-02-15T14:41:15.889Z,13.52
2023-02-15T14:43:48.626Z,13.35
2023-02-15T14:46:22.926Z,12.75
2023-02-15T14:48:55.715Z,13.25
2023-02-15T14:51:41.228Z,14.18
2023-02-15T14:54:08.824Z,14.10
2023-02-15T14:56:35.931Z,14.27
2023-02-15T14:59:24.703Z,13.50
2023-02-15T15:02:11.179Z,14.05
2023-02-15T15:04:45.017Z,13.13
2023-02-15T15:07:38.508Z,13.82
2023-02-15T15:10:36.325Z,12.85
2023-02-15T15:13:31.892Z,13.73
2023-02-15T15:16:32.551Z,13.82
2023-02-15T15:18:59.836Z,13.63
2023-02-15T15:21:48.962Z,14.10
2023-02-15T15:24:37.248Z,14.57
2023-02-15T15:27:41.047Z,14.18
2023-02-15T15:30:47.693Z,13.50
2023-02-15T15:33:30.546Z,14.10
2023-02-15T15:36:28.617Z,15.07
2023-02-15T15:39:32.250Z,15.40
2023-02-15T15:42:27.956Z,15.82
2023-02-15T15:45:26.103Z,15.40
2023-02-15T15:48:31.106Z,15.57
2023-02-15T15:51:01.255Z,15.00
2023-02-15T15:53:31.657Z,15.85
2023-02-15T15:56:08.419Z,16.45
2023-02-15T15:58:35.785Z,16.60
2023-02-15T16:01:12.472Z,15.93
2023-02-15T16:03:39.233Z,16.02
2023-02-15T16:06:06.455Z,16.00
2023-02-15T16:08:39.379Z,16.77
2023-02-15T16:11:17.585Z,16.10
2023-02-15T16:13:45.198Z,14.88
2023-02-15T16:16:14.111Z,17.33
2023-02-15T16:18:43.329Z,15.18
2023-02-15T16:21:20.528Z,16.15
2023-02-15T16:24:25.640Z,17.17
2023-02-15T16:27:16.965Z,16.00
2023-02-15T16:29:43.641Z,17.00
2023-02-15T16:32:22.192Z,16.50
2023-02-15T16:34:57.550Z,16.63
2023-02-15T16:37:28.207Z,16.05
2023-02-15T16:39:56.375Z,16.45
2023-02-15T16:42:24.160Z,17.25
2023-02-15T16:44:58.786Z,15.57
2023-02-15T16:47:29.597Z,18.10
2023-02-15T16:50:00.530Z,17.88
2023-02-15T16:52:28.937Z,18.65
2023-02-15T16:55:07.426Z,18.75
2023-02-15T16:57:37.685Z,18.33
2023-02-15T17:00:17.759Z,18.63
2023-02-15T17:03:05.159Z,17.95
2023-02-15T17:05:41.993Z,17.88
2023-02-15T17:08:28.221Z,17.17
2023-02-15T17:11:01.023Z,18.52
2023-02-15T17:13:28.981Z,17.38
2023-02-15T17:16:02.126Z,17.52
2023-02-15T17:18:31.566Z,16.45
2023-02-15T17:21:02.164Z,18.15
2023-02-15T17:23:41.757Z,18.17
2023-02-15T17:26:20.212Z,20.35
2023-02-15T17:29:00.030Z,19.55
2023-02-15T17:31:32.864Z,22.73
2023-02-15T17:34:01.056Z,20.63
2023-02-15T17:36:30.271Z,19.63
2023-02-15T17:39:01.500Z,20.15
2023-02-15T17:41:30.404Z,19.50
2023-02-15T17:43:57.302Z,21.35
2023-02-15T17:46:25.342Z,18.95
2023-02-15T17:48:55.642Z,18.92
2023-02-15T17:51:23.460Z,20.63
2023-02-15T17:54:08.958Z,19.25
2023-02-15T17:56:37.529Z,20.77
2023-02-15T17:59:08.164Z,26.10
2023-02-15T18:01:55.736Z,23.98
2023-02-15T18:04:41.820Z,21.15
2023-02-15T18:07:30.255Z,20.90
2023-02-15T18:10:15.459Z,20.20
2023-02-15T18:12:42.417Z,19.58
2023-02-15T18:15:12.270Z,17.58
2023-02-15T18:17:47.665Z,19.13
2023-02-15T18:20:28.682Z,18.88
2023-02-15T18:22:55.443Z,19.77
2023-02-15T18:25:25.816Z,19.77
2023-02-15T18:27:54.953Z,19.70
2023-02-15T18:30:24.005Z,20.10
2023-02-15T18:32:53.914Z,19.67
2023-02-15T18:35:24.128Z,19.00
2023-02-15T18:37:53.032Z,20.08
2023-02-15T18:40:25.691Z,20.35
2023-02-15T18:42:52.422Z,20.80
2023-02-15T18:45:22.218Z,18.70
2023-02-15T18:47:49.298Z,19.00
2023-02-15T18:50:19.149Z,20.15
2023-02-15T18:52:48.051Z,21.65
2023-02-15T18:55:20.435Z,23.92
2023-02-15T18:57:48.412Z,22.05
2023-02-15T19:00:19.647Z,24.42
2023-02-15T19:02:46.778Z,22.67
2023-02-15T19:05:13.943Z,22.85
2023-02-15T19:07:43.013Z,19.92
2023-02-15T19:10:18.289Z,19.90
2023-02-15T19:12:45.458Z,18.20
2023-02-15T19:15:16.795Z,19.05
2023-02-15T19:17:43.428Z,21.80
2023-02-15T19:20:26.698Z,18.98
2023-02-15T19:22:56.086Z,18.27
2023-02-15T19:25:26.326Z,19.27
2023-02-15T19:27:54.065Z,17.52
2023-02-15T19:30:38.735Z,17.08
2023-02-15T19:33:06.427Z,16.50
2023-02-15T19:35:35.597Z,18.20
2023-02-15T19:38:06.397Z,17.13
2023-02-15T19:40:35.276Z,18.58
2023-02-15T19:43:03.103Z,16.67
2023-02-15T19:45:31.783Z,17.67
2023-02-15T19:48:00.927Z,17.63
2023-02-15T19:50:33.010Z,18.85
2023-02-15T19:53:00.015Z,18.45
2023-02-15T19:55:34.560Z,19.05
2023-02-15T19:58:02.268Z,19.45
2023-02-15T20:00:31.113Z,20.45
2023-02-15T20:02:59.268Z,16.77
2023-02-15T20:05:31.163Z,17.55
2023-02-15T20:07:58.248Z,18.58
2023-02-15T20:10:28.671Z,19.25
2023-02-15T20:12:55.428Z,19.35
2023-02-15T20:15:33.458Z,19.38
2023-02-15T20:18:06.732Z,19.70
2023-02-15T20:20:38.848Z,17.75
2023-02-15T20:23:06.987Z,20.08
2023-02-15T20:25:34.132Z,17.75
2023-02-15T20:28:01.513Z,21.67
2023-02-15T20:30:31.255Z,20.52
2023-02-15T20:32:58.065Z,20.88
2023-02-15T20:35:28.588Z,21.08
2023-02-15T20:37:59.515Z,22.23
2023-02-15T20:40:31.939Z,23.38
2023-02-15T20:42:58.849Z,20.63
2023-02-15T20:45:31.478Z,20.75
2023-02-15T20:47:59.325Z,19.27
2023-02-15T20:50:31.654Z,19.60
2023-02-15T20:53:00.120Z,20.05
2023-02-15T20:55:29.355Z,20.02
2023-02-15T20:57:56.785Z,21.25
2023-02-15T21:00:27.305Z,19.15
2023-02-15T21:02:59.384Z,21.27
2023-02-15T21:05:32.645Z,22.00
2023-02-15T21:08:00.552Z,21.95
2023-02-15T21:10:29.829Z,24.30
2023-02-15T21:12:59.159Z,24.70
2023-02-15T21:15:34.525Z,23.45
2023-02-15T21:18:04.553Z,24.25
2023-02-15T21:20:32.397Z,23.23
2023-02-15T21:23:02.688Z,25.25
2023-02-15T21:25:36.855Z,24.52
2023-02-15T21:28:05.186Z,24.33
2023-02-15T21:30:31.863Z,23.63
2023-02-15T21:32:58.509Z,22.40
2023-02-15T21:35:25.677Z,22.30
2023-02-15T21:37:53.146Z,22.30
2023-02-15T21:40:23.686Z,23.90
2023-02-15T21:43:09.245Z,22.67
2023-02-15T21:45:54.526Z,22.10
2023-02-15T21:48:22.191Z,21.48
2023-02-15T21:51:09.472Z,21.77
2023-02-15T21:53:42.717Z,20.73
2023-02-15T21:56:18.954Z,21.00
2023-02-15T21:58:46.472Z,20.92
2023-02-15T22:01:25.917Z,21.25
2023-02-15T22:03:55.069Z,21.23
2023-02-15T22:06:22.406Z,20.92
2023-02-15T22:08:49.192Z,20.85
2023-02-15T22:11:18.747Z,19.00
2023-02-15T22:13:46.313Z,20.23
2023-02-15T22:16:22.425Z,18.58
2023-02-15T22:18:49.131Z,18.08
2023-02-15T22:21:16.667Z,18.27
2023-02-15T22:23:43.310Z,18.85
2023-02-15T22:26:20.418Z,18.90
2023-02-15T22:28:47.162Z,19.05
2023-02-15T22:31:22.059Z,17.23
2023-02-15T22:33:52.189Z,18.85
2023-02-15T22:36:24.916Z,17.17
2023-02-15T22:38:51.820Z,17.73
2023-02-15T22:41:18.828Z,16.52
2023-02-15T22:43:47.042Z,15.82
2023-02-15T22:46:22.969Z,15.93
2023-02-15T22:48:50.281Z,16.90
2023-02-15T22:51:20.351Z,16.40
2023-02-15T22:53:49.545Z,15.00
2023-02-15T22:56:19.931Z,16.33
2023-02-15T22:58:49.411Z,15.05
2023-02-15T23:01:33.435Z,16.05
2023-02-15T23:04:03.230Z,14.70
2023-02-15T23:06:30.417Z,15.23
2023-02-15T23:08:57.049Z,15.23
2023-02-15T23:11:23.778Z,13.27
2023-02-15T23:13:50.547Z,13.60
2023-02-15T23:16:18.268Z,14.50
2023-02-15T23:18:46.967Z,14.95
2023-02-15T23:21:22.475Z,15.52
2023-02-15T23:23:52.196Z,15.95
2023-02-15T23:26:25.511Z,15.95
2023-02-15T23:28:52.496Z,16.35
2023-02-15T23:31:25.284Z,17.13
2023-02-15T23:33:52.869Z,16.47
2023-02-15T23:36:37.262Z,15.93
2023-02-15T23:39:36.174Z,15.30
2023-02-15T23:42:07.264Z,13.25
2023-02-15T23:44:34.225Z,15.73
2023-02-15T23:47:00.900Z,14.90
2023-02-15T23:49:28.897Z,14.18
2023-02-15T23:51:57.210Z,15.05
2023-02-15T23:54:26.049Z,14.10
2023-02-15T23:56:59.175Z,15.18
2023-02-15T23:59:28.533Z,16.83
